createdAt,value
2022-12-09T00:03:51.008Z,86.85
2022-12-09T00:08:59.622Z,86.62
2022-12-09T00:14:07.705Z,86.64
2022-12-09T00:19:25.838Z,86.78
2022-12-09T00:24:35.144Z,86.99
2022-12-09T00:29:42.769Z,86.93
2022-12-09T00:34:51.309Z,87.01
2022-12-09T00:39:58.494Z,87.41
2022-12-09T00:45:04.025Z,87.26
2022-12-09T00:50:13.685Z,86.98
2022-12-09T00:55:22.720Z,87.07
2022-12-09T01:00:30.068Z,86.87
2022-12-09T01:05:37.927Z,86.50
2022-12-09T01:10:46.822Z,86.02
2022-12-09T01:15:54.590Z,85.50
2022-12-09T01:21:02.686Z,85.26
2022-12-09T01:26:10.634Z,85.19
2022-12-09T01:31:20.896Z,85.62
2022-12-09T01:36:31.135Z,86.15
2022-12-09T01:41:38.750Z,86.55
2022-12-09T01:46:46.959Z,86.63
2022-12-09T01:52:03.322Z,87.11
2022-12-09T01:57:11.954Z,87.46
2022-12-09T02:02:21.517Z,87.62
2022-12-09T02:07:30.293Z,87.52
2022-12-09T02:12:47.246Z,87.85
2022-12-09T02:17:59.325Z,87.65
2022-12-09T02:23:12.973Z,87.49
2022-12-09T02:28:36.269Z,87.81
2022-12-09T02:33:58.066Z,88.39
2022-12-09T02:39:09.920Z,88.40
2022-12-09T02:44:21.205Z,87.54
2022-12-09T02:49:31.965Z,87.39
2022-12-09T02:54:43.747Z,87.38
2022-12-09T02:59:51.244Z,87.72
2022-12-09T03:05:11.317Z,86.76
2022-12-09T03:10:25.253Z,86.56
2022-12-09T03:15:36.756Z,86.47
2022-12-09T03:20:46.932Z,87.47
2022-12-09T03:26:00.192Z,87.55
2022-12-09T03:31:14.860Z,87.51
2022-12-09T03:36:24.318Z,87.47
2022-12-09T03:41:34.267Z,87.09
2022-12-09T03:46:44.412Z,87.18
2022-12-09T03:51:57.304Z,87.43
2022-12-09T03:57:05.843Z,87.66
2022-12-09T04:02:14.210Z,87.93
2022-12-09T04:07:21.648Z,87.55
2022-12-09T04:12:27.777Z,87.40
2022-12-09T04:17:35.156Z,87.01
2022-12-09T04:22:42.716Z,87.20
2022-12-09T04:27:50.471Z,87.57
2022-12-09T04:32:58.009Z,88.06
2022-12-09T04:38:05.249Z,88.29
2022-12-09T04:43:12.779Z,88.47
2022-12-09T04:48:20.440Z,88.67
2022-12-09T04:53:28.623Z,88.63
2022-12-09T04:58:41.826Z,88.70
2022-12-09T05:03:51.706Z,88.56
2022-12-09T05:08:59.474Z,88.39
2022-12-09T05:14:06.744Z,88.84
2022-12-09T05:19:14.758Z,88.69
2022-12-09T05:24:22.400Z,88.43
2022-12-09T05:29:29.925Z,88.43
2022-12-09T05:34:37.685Z,88.85
2022-12-09T05:39:45.928Z,88.79
2022-12-09T05:44:53.672Z,88.80
2022-12-09T05:50:07.406Z,88.44
2022-12-09T05:55:15.996Z,88.26
2022-12-09T06:00:25.133Z,88.79
2022-12-09T06:05:33.602Z,88.52
2022-12-09T06:10:44.197Z,89.26
2022-12-09T06:15:51.925Z,89.63
2022-12-09T06:20:59.670Z,90.23
2022-12-09T06:26:07.564Z,90.18
2022-12-09T06:31:15.565Z,89.33
2022-12-09T06:36:23.673Z,89.55
2022-12-09T06:41:31.023Z,90.07
2022-12-09T06:46:39.114Z,90.08
2022-12-09T06:51:47.017Z,90.01
2022-12-09T06:56:54.477Z,89.91
2022-12-09T07:02:02.082Z,90.45
2022-12-09T07:07:11.207Z,90.71
2022-12-09T07:12:19.117Z,90.53
2022-12-09T07:17:27.015Z,91.05
2022-12-09T07:22:35.682Z,91.39
2022-12-09T07:27:42.996Z,91.68
2022-12-09T07:32:50.338Z,92.79
2022-12-09T07:37:58.606Z,93.22
2022-12-09T07:43:06.926Z,93.09
2022-12-09T07:48:14.568Z,93.09
2022-12-09T07:53:22.292Z,92.95
2022-12-09T07:58:29.866Z,92.54
2022-12-09T08:03:38.211Z,92.37
2022-12-09T08:08:46.620Z,92.77
2022-12-09T08:13:57.000Z,92.63
2022-12-09T08:19:04.468Z,92.84
2022-12-09T08:24:14.011Z,92.65
2022-12-09T08:29:24.392Z,92.86
2022-12-09T08:34:35.686Z,93.38
2022-12-09T08:39:44.368Z,93.81
2022-12-09T08:44:55.858Z,93.84
2022-12-09T08:50:09.950Z,93.71
2022-12-09T08:55:17.641Z,93.40
2022-12-09T09:00:23.516Z,93.00
2022-12-09T09:05:31.241Z,92.59
2022-12-09T09:10:40.091Z,91.96
2022-12-09T09:15:49.044Z,91.65
2022-12-09T09:20:59.763Z,91.03
2022-12-09T09:26:11.719Z,90.52
2022-12-09T09:31:22.262Z,89.94
2022-12-09T09:36:30.338Z,89.63
2022-12-09T09:41:48.121Z,89.32
2022-12-09T09:46:57.647Z,89.06
2022-12-09T09:52:13.295Z,88.90
2022-12-09T09:57:25.577Z,88.56
2022-12-09T10:02:49.482Z,87.88
2022-12-09T10:08:07.246Z,87.44
2022-12-09T10:13:26.898Z,86.62
2022-12-09T10:18:42.252Z,85.49
2022-12-09T10:23:51.977Z,84.16
2022-12-09T10:29:12.252Z,83.59
2022-12-09T10:34:21.240Z,83.65
2022-12-09T10:39:31.119Z,83.33
2022-12-09T10:44:39.164Z,82.37
2022-12-09T10:49:51.759Z,81.56
2022-12-09T10:55:01.123Z,81.31
2022-12-09T11:00:29.619Z,81.09
2022-12-09T11:05:45.165Z,80.25
2022-12-09T11:10:53.604Z,79.40
2022-12-09T11:16:05.356Z,79.79
2022-12-09T11:21:33.443Z,79.51
2022-12-09T11:26:40.070Z,79.11
2022-12-09T11:31:49.177Z,78.56
2022-12-09T11:36:59.160Z,78.13
2022-12-09T11:42:18.953Z,78.02
2022-12-09T11:47:57.320Z,77.92
2022-12-09T11:53:18.994Z,77.51
2022-12-09T12:04:02.257Z,76.42
2022-12-09T12:09:18.396Z,75.95
2022-12-09T12:14:30.853Z,75.71
2022-12-09T12:19:41.205Z,75.49
2022-12-09T12:25:17.508Z,75.61
2022-12-09T12:30:29.529Z,75.45
2022-12-09T12:35:49.649Z,75.14
2022-12-09T12:41:12.251Z,75.16
2022-12-09T12:46:45.354Z,75.13
2022-12-09T12:52:01.939Z,75.46
2022-12-09T12:57:18.563Z,75.27
2022-12-09T13:02:38.910Z,75.78
2022-12-09T13:07:51.611Z,76.41
2022-12-09T13:13:02.250Z,77.02
2022-12-09T13:18:16.029Z,77.07
2022-12-09T13:23:35.030Z,77.22
2022-12-09T13:28:50.816Z,76.94
2022-12-09T13:34:08.668Z,76.66
2022-12-09T13:39:36.718Z,76.86
2022-12-09T13:44:46.942Z,76.66
2022-12-09T13:50:00.084Z,76.28
2022-12-09T13:55:18.753Z,76.12
2022-12-09T14:00:26.068Z,76.06
2022-12-09T14:05:37.129Z,76.27
2022-12-09T14:10:50.496Z,76.67
2022-12-09T14:16:33.417Z,77.57
2022-12-09T14:21:40.852Z,77.87
2022-12-09T14:27:09.836Z,77.73
2022-12-09T14:32:23.964Z,77.70
2022-12-09T14:37:53.697Z,78.09
2022-12-09T14:43:16.259Z,78.27
2022-12-09T14:48:26.988Z,79.02
2022-12-09T14:53:39.193Z,79.75
2022-12-09T14:58:51.889Z,80.29
2022-12-09T15:04:01.246Z,80.43
2022-12-09T15:09:16.837Z,80.46
2022-12-09T15:14:30.299Z,80.09
2022-12-09T15:25:18.196Z,81.85
2022-12-09T15:30:28.716Z,82.49
2022-12-09T15:35:36.604Z,82.68
2022-12-09T15:41:07.612Z,83.09
2022-12-09T15:46:15.768Z,83.38
2022-12-09T15:51:26.627Z,83.86
2022-12-09T15:56:40.390Z,84.30
2022-12-09T16:01:54.005Z,84.97
2022-12-09T16:07:13.526Z,85.36
2022-12-09T16:12:33.991Z,85.94
2022-12-09T16:17:55.512Z,86.36
2022-12-09T16:23:05.227Z,86.75
2022-12-09T16:28:23.689Z,87.33
2022-12-09T16:33:35.705Z,87.82
2022-12-09T16:38:44.573Z,88.14
2022-12-09T16:43:59.743Z,88.64
2022-12-09T16:49:08.656Z,88.62
2022-12-09T16:54:21.105Z,88.86
2022-12-09T16:59:37.047Z,89.37
2022-12-09T17:04:46.449Z,89.70
2022-12-09T17:09:54.202Z,90.18
2022-12-09T17:15:01.472Z,90.87
2022-12-09T17:20:08.311Z,90.94
2022-12-09T17:25:15.778Z,91.04
2022-12-09T17:30:23.262Z,90.95
2022-12-09T17:35:33.963Z,90.97
2022-12-09T17:40:41.532Z,91.33
2022-12-09T17:45:48.771Z,91.47
2022-12-09T17:50:54.527Z,91.80
2022-12-09T17:56:05.893Z,91.91
2022-12-09T18:01:18.817Z,92.23
2022-12-09T18:06:26.362Z,92.60
2022-12-09T18:11:33.547Z,92.67
2022-12-09T18:16:39.290Z,93.02
2022-12-09T18:21:47.517Z,93.25
2022-12-09T18:26:55.058Z,93.26
2022-12-09T18:32:00.457Z,93.30
2022-12-09T18:37:07.871Z,93.39
2022-12-09T18:42:13.680Z,93.60
2022-12-09T18:47:20.960Z,93.52
2022-12-09T18:52:26.785Z,93.73
2022-12-09T18:57:34.549Z,93.99
2022-12-09T19:02:42.775Z,94.16
2022-12-09T19:07:50.438Z,94.25
2022-12-09T19:12:59.244Z,94.25
2022-12-09T19:18:06.768Z,94.40
2022-12-09T19:23:13.986Z,94.48
2022-12-09T19:28:20.830Z,94.62
2022-12-09T19:33:28.143Z,95.01
2022-12-09T19:38:35.533Z,95.20
2022-12-09T19:43:42.737Z,95.18
2022-12-09T19:48:49.800Z,95.10
2022-12-09T19:53:57.973Z,95.07
2022-12-09T19:59:06.508Z,95.29
2022-12-09T20:04:47.135Z,95.25
2022-12-09T20:09:42.837Z,95.34
2022-12-09T20:14:50.428Z,95.39
2022-12-09T20:19:56.128Z,95.54
2022-12-09T20:25:03.639Z,95.66
2022-12-09T20:30:13.107Z,95.74
2022-12-09T20:35:20.897Z,95.87
2022-12-09T20:40:28.180Z,96.02
2022-12-09T20:45:34.031Z,96.22
2022-12-09T20:50:42.963Z,96.42
2022-12-09T20:55:59.295Z,96.17
2022-12-09T21:01:13.830Z,96.17
2022-12-09T21:06:22.949Z,96.32
2022-12-09T21:11:30.124Z,96.34
2022-12-09T21:16:36.952Z,96.25
2022-12-09T21:21:48.546Z,96.29
2022-12-09T21:26:58.628Z,96.23
2022-12-09T21:32:06.180Z,96.08
2022-12-09T21:37:13.423Z,95.93
2022-12-09T21:42:20.671Z,95.96
2022-12-09T21:47:28.506Z,96.10
2022-12-09T21:52:35.772Z,95.99
2022-12-09T21:57:41.598Z,95.77
2022-12-09T22:02:54.709Z,95.82
2022-12-09T22:08:05.220Z,95.80
2022-12-09T22:13:12.659Z,95.94
2022-12-09T22:18:20.509Z,95.76
2022-12-09T22:23:28.490Z,95.60
2022-12-09T22:28:36.149Z,95.83
2022-12-09T22:33:43.870Z,96.03
2022-12-09T22:38:51.852Z,95.82
2022-12-09T22:43:59.754Z,95.97
2022-12-09T22:49:08.394Z,95.95
2022-12-09T22:54:16.633Z,95.80
2022-12-09T22:59:24.133Z,95.84
2022-12-09T23:04:31.625Z,95.69
2022-12-09T23:09:39.343Z,95.73
2022-12-09T23:14:47.998Z,95.61
2022-12-09T23:19:55.273Z,95.42
2022-12-09T23:25:01.207Z,95.72
2022-12-09T23:30:10.563Z,95.75
2022-12-09T23:35:19.659Z,95.71
2022-12-09T23:40:27.242Z,95.74
2022-12-09T23:45:36.459Z,95.79
2022-12-09T23:50:44.314Z,95.99
2022-12-09T23:55:52.512Z,95.76
